Time;durP1;ratioP1;P1;durP2;ratioP2;P2;SDS_P1;SDS_P2;PMS_P1;PMS_P2;Temp;Humidity;BMP_temperature;BMP_pressure;BME280_temperature;BME280_humidity;BME280_pressure;Samples;Min_cycle;Max_cycle;Signal;HPM_P1;HPM_P2
2021/05/22 07:33:53;;;;;;;4.82;0.82;;;15.00;93.80;;;;;;5150240;27;20110;-75
2021/05/22 07:36:19;;;;;;;1.50;0.73;;;14.00;92.00;;;;;;5143006;27;20059;-74
2021/05/22 07:38:45;;;;;;;0.75;0.60;;;14.20;91.40;;;;;;5129591;28;20055;-74
2021/05/22 07:41:11;;;;;;;1.40;0.55;;;14.30;90.80;;;;;;5130297;28;20102;-75
2021/05/22 07:43:37;;;;;;;1.30;0.70;;;14.50;92.20;;;;;;5130322;28;20407;-75
2021/05/22 07:46:03;;;;;;;0.98;0.50;;;14.50;89.90;;;;;;5129345;28;20057;-75
2021/05/22 07:48:30;;;;;;;2.22;1.02;;;14.40;84.50;;;;;;5129218;28;20055;-75
2021/05/22 07:50:56;;;;;;;3.28;0.82;;;14.40;88.70;;;;;;5110606;28;20077;-75
2021/05/22 07:53:22;;;;;;;4.35;0.60;;;14.50;88.60;;;;;;5128518;28;20023;-75
2021/05/22 07:55:49;;;;;;;1.05;0.60;;;14.90;88.20;;;;;;5110416;28;20424;-74
2021/05/22 07:58:17;;;;;;;3.30;0.77;;;15.50;84.00;;;;;;5129089;28;20019;-75
2021/05/22 08:00:44;;;;;;;3.97;0.45;;;15.80;85.30;;;;;;5126193;28;20577;-75
2021/05/22 08:03:10;;;;;;;2.20;1.10;;;16.00;83.40;;;;;;5128913;28;20031;-75
2021/05/22 08:05:36;;;;;;;4.10;0.70;;;16.10;89.60;;;;;;5128691;28;20031;-75
2021/05/22 08:08:02;;;;;;;1.40;0.90;;;16.50;87.00;;;;;;5129603;28;20023;-75
2021/05/22 08:10:28;;;;;;;4.63;1.23;;;16.60;85.50;;;;;;5130724;28;20098;-75
2021/05/22 08:12:54;;;;;;;0.90;0.70;;;16.20;84.50;;;;;;5130190;27;20106;-75
2021/05/22 08:15:20;;;;;;;1.40;1.30;;;16.00;84.20;;;;;;5130622;28;20024;-75
2021/05/22 08:17:45;;;;;;;3.97;1.50;;;16.20;83.80;;;;;;5130516;28;20024;-75
2021/05/22 08:20:12;;;;;;;1.63;1.15;;;16.10;84.30;;;;;;5132298;27;20510;-75
2021/05/22 08:22:38;;;;;;;4.45;1.15;;;16.20;83.10;;;;;;5131721;27;20031;-75
2021/05/22 08:25:08;;;;;;;2.30;0.73;;;16.30;84.20;;;;;;5130425;28;20477;-74
2021/05/22 08:27:34;;;;;;;0.50;0.50;;;16.80;83.40;;;;;;5130296;28;20023;-78
2021/05/22 08:30:00;;;;;;;3.75;1.27;;;17.00;82.40;;;;;;5130192;28;20380;-74
2021/05/22 08:32:27;;;;;;;2.03;0.88;;;17.40;83.90;;;;;;5114693;27;20073;-74
2021/05/22 08:34:53;;;;;;;1.90;0.77;;;17.50;76.60;;;;;;5128575;28;20498;-74
2021/05/22 08:37:20;;;;;;;2.97;1.00;;;17.40;78.10;;;;;;5128967;27;20028;-74
2021/05/22 08:39:50;;;;;;;2.70;1.60;;;17.50;79.00;;;;;;5130081;27;20020;-74
2021/05/22 08:42:23;;;;;;;2.80;0.63;;;17.50;78.10;;;;;;5129664;27;20023;-73
2021/05/22 08:44:49;;;;;;;1.58;0.80;;;18.00;79.00;;;;;;5118114;27;20111;-73
2021/05/22 08:47:15;;;;;;;4.25;1.08;;;18.30;77.20;;;;;;5116213;28;20094;-73
2021/05/22 08:49:41;;;;;;;2.70;0.90;;;17.60;73.10;;;;;;5109085;28;20046;-74
2021/05/22 08:52:18;;;;;;;1.38;1.10;;;17.00;75.60;;;;;;5095341;28;20067;-73
2021/05/22 08:54:45;;;;;;;1.88;0.85;;;17.30;81.80;;;;;;5104042;28;20106;-73
2021/05/22 08:57:12;;;;;;;4.50;1.10;;;18.10;79.40;;;;;;5113675;28;20035;-73
2021/05/22 08:59:42;;;;;;;3.15;1.20;;;18.20;78.40;;;;;;5115123;28;20023;-73
2021/05/22 09:02:09;;;;;;;3.53;1.00;;;18.50;78.50;;;;;;5115613;28;20109;-75
2021/05/22 09:05:09;;;;;;;6.47;1.98;;;18.20;74.90;;;;;;5115823;28;20038;-73
2021/05/22 09:07:40;;;;;;;4.20;1.25;;;18.10;77.20;;;;;;5116042;28;20116;-73
2021/05/22 09:10:16;;;;;;;3.55;1.20;;;18.90;75.00;;;;;;5115181;28;20015;-73
2021/05/22 09:12:45;;;;;;;2.47;1.30;;;19.00;74.00;;;;;;5115053;28;20035;-73
2021/05/22 09:15:15;;;;;;;1.98;1.13;;;18.50;69.20;;;;;;5115094;28;20023;-73
2021/05/22 09:17:52;;;;;;;5.32;1.30;;;18.00;72.10;;;;;;5115274;28;20518;-73
2021/05/22 09:20:30;;;;;;;3.45;1.40;;;18.40;77.50;;;;;;5114593;28;20035;-73
2021/05/22 09:22:59;;;;;;;2.92;1.23;;;18.70;75.60;;;;;;5114878;28;20446;-73
2021/05/22 09:25:25;;;;;;;3.40;0.88;;;18.20;72.30;;;;;;5114921;28;20016;-73
2021/05/22 09:27:53;;;;;;;3.05;1.00;;;18.10;74.30;;;;;;5114794;28;20023;-73
2021/05/22 09:30:21;;;;;;;5.25;1.45;;;18.20;73.00;;;;;;5114691;28;20058;-73
2021/05/22 09:32:47;;;;;;;2.55;1.30;;;18.20;71.80;;;;;;5114636;28;20058;-73
2021/05/22 09:35:14;;;;;;;2.83;1.63;;;18.80;71.10;;;;;;5114379;28;20027;-73
2021/05/22 09:37:47;;;;;;;4.72;1.25;;;19.00;72.10;;;;;;5114714;28;20058;-73
2021/05/22 09:40:17;;;;;;;2.47;1.15;;;19.70;74.60;;;;;;5113118;28;20106;-73
2021/05/22 09:42:43;;;;;;;7.15;1.75;;;18.50;72.60;;;;;;5113404;28;20395;-73
2021/05/22 09:45:38;;;;;;;2.00;1.10;;;18.40;66.00;;;;;;5114286;28;20034;-73
2021/05/22 09:48:13;;;;;;;2.67;1.40;;;19.30;67.90;;;;;;5114407;28;20478;-73
2021/05/22 09:50:42;;;;;;;1.77;1.45;;;19.80;68.90;;;;;;5114223;28;20027;-73
2021/05/22 09:53:29;;;;;;;4.80;1.88;;;19.40;69.10;;;;;;5114380;28;20035;-73
2021/05/22 09:56:14;;;;;;;2.00;1.10;;;20.60;70.60;;;;;;5113347;28;20030;-73
2021/05/22 09:59:02;;;;;;;5.63;1.95;;;21.30;65.90;;;;;;5114160;28;20023;-73
2021/05/22 10:01:30;;;;;;;2.42;1.10;;;20.80;62.80;;;;;;5113973;28;20107;-73
2021/05/22 10:04:19;;;;;;;1.73;1.23;;;20.90;66.20;;;;;;5113895;28;20016;-73
2021/05/22 10:06:45;;;;;;;3.65;1.20;;;22.80;65.10;;;;;;5114290;28;20107;-73
2021/05/22 10:09:14;;;;;;;3.95;1.58;;;23.40;58.50;;;;;;5113817;28;20094;-73
2021/05/22 10:12:09;;;;;;;2.35;1.20;;;23.40;60.00;;;;;;5114050;28;20034;-73
2021/05/22 10:14:38;;;;;;;2.40;1.33;;;23.50;61.20;;;;;;5113828;28;20394;-73
2021/05/22 10:17:05;;;;;;;4.40;1.90;;;24.60;56.20;;;;;;5113818;28;20023;-73
2021/05/22 10:19:33;;;;;;;2.67;1.45;;;24.80;54.90;;;;;;5113577;28;20028;-73
2021/05/22 10:22:00;;;;;;;3.42;1.60;;;25.10;56.40;;;;;;5113643;28;20042;-73
2021/05/22 10:24:27;;;;;;;3.00;1.48;;;25.10;52.50;;;;;;5113878;28;20029;-74
2021/05/22 10:26:54;;;;;;;6.32;1.80;;;25.30;51.90;;;;;;5113819;28;20031;-73
2021/05/22 10:29:21;;;;;;;3.75;1.83;;;26.10;51.20;;;;;;5113537;28;20542;-73
2021/05/22 10:31:48;;;;;;;4.57;1.50;;;26.60;50.50;;;;;;5113566;28;20043;-74
2021/05/22 10:34:22;;;;;;;3.05;2.20;;;28.00;48.90;;;;;;5113146;28;20024;-71
2021/05/22 10:36:52;;;;;;;2.85;1.58;;;29.20;47.60;;;;;;5113572;28;20506;-71
2021/05/22 10:39:38;;;;;;;4.07;1.33;;;28.20;47.10;;;;;;5113454;28;20096;-73
2021/05/22 10:42:06;;;;;;;3.58;1.80;;;29.40;49.40;;;;;;5113339;28;20023;-74
2021/05/22 10:44:36;;;;;;;2.10;1.70;;;31.60;46.20;;;;;;5113422;28;20045;-71
2021/05/22 10:47:17;;;;;;;1.63;1.48;;;31.50;42.30;;;;;;5113115;28;20020;-71
2021/05/22 10:49:52;;;;;;;2.75;1.40;;;30.90;42.60;;;;;;5113586;28;20063;-71
2021/05/22 10:52:21;;;;;;;3.85;1.58;;;30.60;41.40;;;;;;5113019;28;20027;-71
2021/05/22 10:55:12;;;;;;;3.20;1.48;;;29.90;41.00;;;;;;5113590;28;20026;-71
2021/05/22 10:57:58;;;;;;;3.30;1.65;;;29.10;41.80;;;;;;5113296;28;20376;-71
2021/05/22 11:00:25;;;;;;;3.40;1.80;;;28.20;44.00;;;;;;5097952;28;20399;-71
2021/05/22 11:03:08;;;;;;;4.78;1.88;;;28.60;42.10;;;;;;5112744;28;20028;-71
2021/05/22 11:05:37;;;;;;;2.53;1.75;;;29.80;39.90;;;;;;5113051;28;20024;-71
2021/05/22 11:08:03;;;;;;;4.25;1.95;;;32.30;44.90;;;;;;5112649;28;20030;-71
2021/05/22 11:10:42;;;;;;;8.02;2.35;;;34.80;42.40;;;;;;5112903;28;20020;-72
2021/05/22 11:13:18;;;;;;;3.07;2.03;;;32.90;37.10;;;;;;5112910;28;20106;-71
2021/05/22 11:15:49;;;;;;;1.98;1.50;;;32.00;40.40;;;;;;5112663;28;20031;-71
2021/05/22 11:18:17;;;;;;;4.32;1.70;;;28.60;40.00;;;;;;5112766;28;20027;-71
2021/05/22 11:21:04;;;;;;;4.18;1.80;;;27.90;47.20;;;;;;5113062;28;20059;-71
2021/05/22 11:24:02;;;;;;;3.10;2.28;;;29.50;43.80;;;;;;5112513;28;20032;-71
2021/05/22 11:26:49;;;;;;;3.33;2.60;;;29.40;41.20;;;;;;5112734;28;20028;-71
2021/05/22 11:29:17;;;;;;;3.08;1.55;;;30.70;43.10;;;;;;5112810;28;20020;-71
2021/05/22 11:31:43;;;;;;;2.72;1.80;;;32.40;42.90;;;;;;5112450;28;20487;-72
2021/05/22 11:34:25;;;;;;;4.88;1.52;;;33.20;42.90;;;;;;5112630;28;20020;-71
2021/05/22 11:37:09;;;;;;;3.05;1.98;;;31.20;41.40;;;;;;5112779;28;20110;-71
2021/05/22 11:39:42;;;;;;;2.28;1.60;;;31.10;41.70;;;;;;5112639;28;20024;-72
2021/05/22 11:42:34;;;;;;;2.45;1.67;;;29.80;41.30;;;;;;5112551;28;20039;-71
2021/05/22 11:45:04;;;;;;;4.00;1.50;;;29.20;41.30;;;;;;5112582;28;20023;-71
2021/05/22 11:47:34;;;;;;;3.58;1.30;;;25.10;50.00;;;;;;5112413;28;20098;-71
2021/05/22 11:50:02;;;;;;;1.92;1.50;;;23.90;53.20;;;;;;5112663;28;20028;-71
2021/05/22 11:52:32;;;;;;;4.35;1.50;;;26.90;49.20;;;;;;5112459;28;20038;-71
2021/05/22 11:55:00;;;;;;;5.57;1.70;;;27.70;51.50;;;;;;5112684;28;20020;-71
2021/05/22 11:57:25;;;;;;;2.08;1.23;;;26.80;47.90;;;;;;5111083;28;20050;-71
2021/05/22 11:59:51;;;;;;;1.92;1.40;;;24.40;51.20;;;;;;5112278;28;20024;-71
2021/05/22 12:02:40;;;;;;;3.20;1.38;;;24.10;49.50;;;;;;5112332;28;20031;-71
2021/05/22 12:05:09;;;;;;;2.33;1.60;;;24.30;52.40;;;;;;5112532;28;20024;-71
2021/05/22 12:07:51;;;;;;;2.85;1.25;;;27.70;46.80;;;;;;5112492;28;20035;-71
2021/05/22 12:10:18;;;;;;;5.05;1.65;;;25.80;44.20;;;;;;5112299;28;20102;-71
2021/05/22 12:12:45;;;;;;;2.88;1.73;;;26.00;47.00;;;;;;5112136;28;20132;-71
2021/05/22 12:15:26;;;;;;;5.00;1.50;;;27.70;49.80;;;;;;5112240;28;20024;-71
2021/05/22 12:17:53;;;;;;;6.55;2.22;;;28.10;41.50;;;;;;5112532;28;20032;-71
2021/05/22 12:20:21;;;;;;;3.10;1.33;;;26.80;47.60;;;;;;5114193;28;20360;-71
2021/05/22 12:22:47;;;;;;;2.88;1.30;;;25.10;50.90;;;;;;5116025;28;20027;-71
2021/05/22 12:25:13;;;;;;;31.05;2.25;;;23.30;50.70;;;;;;5114974;28;20391;-71
2021/05/22 12:27:40;;;;;;;2.75;1.40;;;22.40;54.70;;;;;;5116024;28;20499;-71
2021/05/22 12:30:08;;;;;;;6.72;1.58;;;22.60;55.30;;;;;;5115653;28;20061;-72
2021/05/22 12:32:34;;;;;;;2.15;1.15;;;23.10;54.20;;;;;;5115591;28;20054;-73
2021/05/22 12:35:08;;;;;;;6.10;1.85;;;23.50;54.20;;;;;;5116048;28;20028;-73
2021/05/22 12:37:34;;;;;;;4.47;1.38;;;23.60;53.80;;;;;;5115760;28;20058;-73
2021/05/22 12:40:07;;;;;;;3.15;1.73;;;23.40;52.70;;;;;;5115942;28;20029;-72
2021/05/22 12:42:39;;;;;;;1.58;1.10;;;22.20;54.20;;;;;;5114212;28;20046;-73
2021/05/22 12:45:08;;;;;;;1.67;1.00;;;21.30;57.60;;;;;;5116036;28;20102;-73
2021/05/22 12:47:48;;;;;;;3.15;1.40;;;20.70;58.10;;;;;;5115553;28;20100;-73
2021/05/22 12:50:25;;;;;;;2.30;1.17;;;20.50;60.00;;;;;;5115689;28;20402;-73
2021/05/22 12:52:55;;;;;;;2.45;1.05;;;20.00;61.10;;;;;;5115526;28;20032;-73
2021/05/22 12:55:29;;;;;;;4.30;1.13;;;20.00;61.10;;;;;;5115594;28;20356;-73
2021/05/22 12:57:55;;;;;;;3.17;1.30;;;20.40;61.30;;;;;;5115250;27;20039;-73
2021/05/22 13:00:22;;;;;;;6.97;1.55;;;19.80;62.90;;;;;;5115478;28;20023;-73
2021/05/22 13:02:56;;;;;;;3.40;1.05;;;19.50;60.30;;;;;;5115366;28;20032;-73
2021/05/22 13:05:27;;;;;;;3.53;1.83;;;19.40;61.10;;;;;;5115226;28;20029;-72
2021/05/22 13:07:58;;;;;;;3.00;1.20;;;18.60;62.10;;;;;;5115278;28;20475;-72
2021/05/22 13:10:32;;;;;;;4.05;1.50;;;18.10;64.20;;;;;;5115222;28;20016;-72
2021/05/22 13:13:09;;;;;;;5.38;1.80;;;18.20;64.20;;;;;;5114861;28;20729;-72
2021/05/22 13:15:37;;;;;;;3.05;1.30;;;18.40;64.10;;;;;;5115007;28;20024;-73
2021/05/22 13:18:06;;;;;;;3.08;1.25;;;18.60;63.40;;;;;;5115012;28;20027;-72
2021/05/22 13:20:38;;;;;;;4.18;1.27;;;18.50;64.50;;;;;;5115058;28;20028;-72
2021/05/22 13:23:19;;;;;;;6.68;1.88;;;18.60;63.40;;;;;;5115165;28;20084;-72
2021/05/22 13:25:55;;;;;;;4.55;1.42;;;18.60;64.90;;;;;;5114944;28;20016;-72
2021/05/22 13:28:28;;;;;;;5.22;1.67;;;18.50;66.20;;;;;;5114600;28;20063;-72
2021/05/22 13:31:13;;;;;;;4.55;2.03;;;18.50;65.20;;;;;;5114636;28;20024;-72
2021/05/22 13:33:51;;;;;;;5.30;1.40;;;18.50;65.40;;;;;;5114595;28;20051;-72
2021/05/22 13:36:21;;;;;;;5.10;1.70;;;18.30;63.00;;;;;;5114871;28;20386;-72
2021/05/22 13:38:47;;;;;;;4.78;1.58;;;18.30;64.40;;;;;;5114888;28;20092;-72
2021/05/22 13:41:13;;;;;;;6.63;1.50;;;18.40;66.70;;;;;;5114368;28;20024;-72
2021/05/22 13:43:40;;;;;;;2.47;1.00;;;18.30;64.60;;;;;;5114312;28;20510;-73
2021/05/22 13:46:06;;;;;;;3.25;1.20;;;18.30;65.60;;;;;;5114681;28;20030;-72
2021/05/22 13:48:32;;;;;;;2.55;1.85;;;18.30;67.10;;;;;;5114474;28;20023;-72
2021/05/22 13:50:59;;;;;;;4.63;1.20;;;18.20;66.00;;;;;;5114580;28;20227;-72
2021/05/22 13:53:25;;;;;;;2.42;1.20;;;18.20;65.00;;;;;;5113063;28;20391;-73
2021/05/22 13:55:51;;;;;;;4.30;1.20;;;18.10;65.50;;;;;;5114062;28;20027;-73
2021/05/22 13:58:17;;;;;;;3.13;1.20;;;18.10;67.20;;;;;;5114424;28;20036;-72
2021/05/22 14:00:43;;;;;;;5.80;1.48;;;18.10;67.50;;;;;;5114015;28;20072;-73
2021/05/22 14:03:10;;;;;;;2.83;1.30;;;18.10;67.40;;;;;;5114213;28;20111;-72
2021/05/22 14:05:37;;;;;;;3.65;1.45;;;18.10;65.10;;;;;;5114021;28;20019;-72
2021/05/22 14:08:04;;;;;;;7.35;1.70;;;17.70;66.50;;;;;;5114004;28;20073;-72
2021/05/22 14:10:30;;;;;;;4.05;1.30;;;17.60;68.10;;;;;;5113657;28;20016;-73
2021/05/22 14:12:57;;;;;;;2.83;1.27;;;17.80;67.70;;;;;;5113951;28;20038;-72
2021/05/22 14:15:23;;;;;;;1.42;1.20;;;17.70;64.50;;;;;;5113987;28;20059;-72
2021/05/22 14:17:49;;;;;;;2.08;1.25;;;17.60;68.90;;;;;;5113845;28;20063;-72
2021/05/22 14:20:17;;;;;;;3.85;1.35;;;17.40;68.00;;;;;;5113876;28;20105;-72
2021/05/22 14:22:44;;;;;;;21.90;2.53;;;17.60;65.60;;;;;;5113514;28;20031;-72
2021/05/22 14:25:11;;;;;;;5.50;1.20;;;17.80;65.30;;;;;;5113586;28;20031;-72
2021/05/22 14:27:37;;;;;;;4.22;1.50;;;17.80;63.80;;;;;;5113564;28;20421;-72
2021/05/22 14:30:05;;;;;;;6.43;2.33;;;17.80;66.60;;;;;;5113756;28;20024;-72
2021/05/22 14:32:31;;;;;;;6.57;1.92;;;17.60;65.30;;;;;;5113496;28;20048;-72
2021/05/22 14:34:57;;;;;;;5.88;2.10;;;17.60;66.10;;;;;;5113495;28;20047;-72
2021/05/22 14:37:23;;;;;;;6.60;1.33;;;17.50;66.20;;;;;;5113708;28;20081;-72
2021/05/22 14:39:48;;;;;;;4.60;1.00;;;17.30;67.10;;;;;;5112936;28;20028;-72
2021/05/22 14:42:14;;;;;;;6.50;2.13;;;16.70;64.70;;;;;;5112921;28;20106;-72
2021/05/22 14:44:43;;;;;;;7.35;1.42;;;16.40;67.30;;;;;;5113316;28;20072;-73
2021/05/22 14:47:08;;;;;;;3.50;1.17;;;16.60;67.80;;;;;;5113519;28;20028;-72
2021/05/22 14:49:34;;;;;;;3.05;1.08;;;16.60;64.90;;;;;;5113206;28;20021;-72
2021/05/22 14:52:00;;;;;;;2.38;1.20;;;16.40;66.80;;;;;;5113268;28;20063;-72
2021/05/22 14:54:26;;;;;;;6.22;2.45;;;16.40;65.40;;;;;;5113281;28;20034;-72
2021/05/22 14:56:52;;;;;;;2.83;1.10;;;16.50;69.00;;;;;;5112854;28;20035;-72
2021/05/22 14:59:18;;;;;;;9.68;1.60;;;16.30;66.90;;;;;;5113356;28;20095;-72
2021/05/22 15:01:44;;;;;;;9.75;2.15;;;16.30;67.60;;;;;;5112996;28;20607;-73
2021/05/22 15:04:09;;;;;;;5.55;1.67;;;16.30;67.00;;;;;;5113089;28;20023;-72
2021/05/22 15:06:35;;;;;;;4.13;1.45;;;16.20;68.20;;;;;;5112995;28;20027;-72
2021/05/22 15:09:02;;;;;;;5.93;1.67;;;16.30;70.10;;;;;;5112915;28;20027;-72
2021/05/22 15:11:28;;;;;;;3.42;1.30;;;16.20;71.10;;;;;;5112849;28;20027;-72
2021/05/22 15:13:54;;;;;;;9.38;1.60;;;16.50;71.90;;;;;;5112575;28;20034;-72
2021/05/22 15:16:19;;;;;;;5.07;1.58;;;16.70;73.40;;;;;;5113212;28;20493;-72
2021/05/22 15:18:45;;;;;;;5.38;1.27;;;16.80;70.40;;;;;;5112801;28;20031;-72
2021/05/22 15:21:11;;;;;;;2.08;1.00;;;16.70;70.90;;;;;;5113135;28;20023;-72
2021/05/22 15:23:37;;;;;;;4.30;1.77;;;16.70;70.40;;;;;;5112478;28;20028;-72
2021/05/22 15:26:04;;;;;;;8.27;1.50;;;16.70;71.40;;;;;;5112752;28;20475;-72
2021/05/22 15:28:31;;;;;;;2.72;1.27;;;16.60;69.20;;;;;;5112958;28;20024;-72
2021/05/22 15:30:56;;;;;;;6.90;1.60;;;16.20;69.70;;;;;;5112710;28;20059;-73
2021/05/22 15:33:22;;;;;;;6.43;1.38;;;15.40;67.90;;;;;;5112758;28;20569;-72
2021/05/22 15:35:48;;;;;;;5.70;1.90;;;15.20;69.10;;;;;;5112647;28;20407;-72
2021/05/22 15:38:14;;;;;;;5.10;1.35;;;15.30;70.30;;;;;;5112603;28;20390;-72
2021/05/22 15:40:41;;;;;;;5.07;1.15;;;15.50;69.70;;;;;;5112643;28;20031;-72
2021/05/22 15:43:08;;;;;;;6.38;1.40;;;15.40;69.60;;;;;;5112690;28;20051;-72
2021/05/22 15:45:34;;;;;;;8.30;1.73;;;15.40;71.10;;;;;;5112753;28;20030;-72
2021/05/22 15:48:30;;;;;;;7.05;1.27;;;15.20;70.70;;;;;;5112521;28;20507;-72
2021/05/22 15:51:38;;;;;;;2.28;1.10;;;15.10;71.00;;;;;;5112211;28;20027;-72
2021/05/22 15:59:10;;;;;;;5.28;1.63;;;14.60;77.80;;;;;;5116625;28;20026;-72
2021/05/22 16:01:42;;;;;;;7.40;1.13;;;14.20;78.70;;;;;;5115227;28;20395;-72
2021/05/22 16:06:44;;;;;;;3.28;1.02;;;14.10;78.70;;;;;;5116445;28;20024;-72
2021/05/22 16:09:10;;;;;;;3.25;1.30;;;13.60;99.90;;;;;;5116613;28;20413;-72
2021/05/22 16:11:36;;;;;;;3.05;1.60;;;13.20;95.20;;;;;;5116509;28;20083;-72
2021/05/22 16:14:02;;;;;;;7.32;1.65;;;12.60;97.00;;;;;;5105232;28;20059;-73
2021/05/22 16:16:27;;;;;;;4.55;1.73;;;12.50;99.90;;;;;;5105756;27;20027;-73
2021/05/22 16:18:53;;;;;;;4.65;1.42;;;12.30;99.90;;;;;;5112679;28;20459;-73
2021/05/22 16:21:19;;;;;;;3.65;1.58;;;12.20;99.90;;;;;;5111104;28;20054;-73
2021/05/22 16:23:45;;;;;;;4.47;1.73;;;11.90;99.90;;;;;;5112683;28;20494;-73
2021/05/22 16:26:12;;;;;;;6.20;2.22;;;12.00;99.90;;;;;;5110347;28;20035;-74
2021/05/22 16:28:39;;;;;;;6.85;1.80;;;11.80;99.90;;;;;;5112793;28;20043;-73
2021/05/22 16:31:05;;;;;;;5.90;1.55;;;11.90;99.90;;;;;;5112384;28;20036;-73
2021/05/22 16:33:31;;;;;;;4.25;1.75;;;12.10;99.90;;;;;;5109470;28;20070;-74
2021/05/22 16:35:57;;;;;;;2.80;1.23;;;12.00;99.90;;;;;;5111249;28;20024;-74
2021/05/22 16:38:23;;;;;;;2.92;1.40;;;12.10;99.90;;;;;;5111806;28;20030;-73
2021/05/22 16:40:50;;;;;;;9.70;2.20;;;12.60;99.90;;;;;;5112138;28;20036;-73
2021/05/22 16:43:18;;;;;;;5.50;2.17;;;12.60;99.90;;;;;;5107543;28;20436;-74
2021/05/22 16:45:44;;;;;;;3.63;1.58;;;12.60;99.90;;;;;;5112803;28;20383;-74
2021/05/22 16:48:10;;;;;;;2.55;1.50;;;12.40;99.90;;;;;;5111054;28;20030;-74
2021/05/22 16:50:37;;;;;;;4.35;1.73;;;12.20;99.90;;;;;;5110120;28;20027;-73
2021/05/22 16:53:03;;;;;;;4.50;1.65;;;12.00;99.90;;;;;;5109274;28;20053;-74
2021/05/22 16:55:29;;;;;;;7.43;1.75;;;12.00;99.90;;;;;;5110693;28;20043;-73
2021/05/22 16:57:56;;;;;;;2.97;1.63;;;12.10;99.90;;;;;;5109781;28;20047;-73
2021/05/22 17:00:23;;;;;;;3.17;1.60;;;12.10;99.90;;;;;;5109995;28;20035;-73
2021/05/22 17:02:49;;;;;;;4.03;1.65;;;12.20;99.90;;;;;;5111502;28;20518;-73
2021/05/22 17:05:18;;;;;;;1.75;1.15;;;12.10;99.90;;;;;;5111390;28;20032;-74
2021/05/22 17:07:45;;;;;;;6.83;1.37;;;12.00;99.90;;;;;;5110739;28;20020;-73
2021/05/22 17:10:11;;;;;;;3.05;1.08;;;11.90;99.90;;;;;;5111904;28;20265;-73
2021/05/22 17:12:38;;;;;;;2.10;1.00;;;12.10;99.90;;;;;;5112131;28;20035;-73
2021/05/22 17:15:05;;;;;;;2.38;1.02;;;11.90;99.90;;;;;;5111333;28;20028;-73
2021/05/22 17:17:32;;;;;;;3.78;1.50;;;12.10;99.90;;;;;;5111725;28;20507;-73
2021/05/22 17:19:58;;;;;;;2.65;1.30;;;11.80;99.90;;;;;;5111146;28;20053;-73
2021/05/22 17:22:24;;;;;;;3.22;2.05;;;11.90;99.90;;;;;;5111448;28;20031;-73
2021/05/22 17:24:53;;;;;;;3.20;1.15;;;12.10;99.90;;;;;;5108551;28;20491;-73
2021/05/22 17:27:20;;;;;;;4.40;1.48;;;11.60;99.90;;;;;;5111149;28;20038;-73
2021/05/22 17:29:46;;;;;;;3.03;1.02;;;11.60;99.90;;;;;;5111590;28;20058;-73
2021/05/22 17:32:13;;;;;;;5.13;1.63;;;11.90;99.90;;;;;;5110454;28;20558;-73
2021/05/22 17:34:40;;;;;;;1.10;0.93;;;12.10;99.90;;;;;;5107808;28;20039;-73
2021/05/22 17:37:07;;;;;;;2.47;1.13;;;12.00;99.90;;;;;;5107966;28;20023;-73
2021/05/22 17:39:33;;;;;;;1.45;0.90;;;12.00;99.90;;;;;;5110736;28;20485;-73
2021/05/22 17:42:00;;;;;;;0.85;0.70;;;12.10;99.90;;;;;;5111371;28;20567;-73
2021/05/22 17:44:26;;;;;;;2.35;1.27;;;12.10;99.90;;;;;;5111375;28;20039;-73
2021/05/22 17:46:52;;;;;;;1.70;1.20;;;12.40;99.90;;;;;;5109192;28;20103;-73
2021/05/22 17:49:20;;;;;;;1.73;0.73;;;12.50;99.90;;;;;;5110807;28;20589;-73
2021/05/22 17:51:46;;;;;;;0.60;0.60;;;12.60;99.90;;;;;;5111619;28;20028;-73
2021/05/22 17:54:12;;;;;;;1.67;1.00;;;12.40;99.90;;;;;;5111644;28;20027;-73
2021/05/22 17:56:38;;;;;;;2.13;0.90;;;12.30;99.90;;;;;;5110823;28;20032;-73
2021/05/22 17:59:06;;;;;;;1.15;0.75;;;11.80;99.90;;;;;;5110806;28;20035;-73
2021/05/22 18:01:33;;;;;;;1.98;0.47;;;11.70;99.90;;;;;;5110334;28;20126;-73
2021/05/22 18:03:59;;;;;;;0.88;0.60;;;11.70;99.90;;;;;;5110176;28;20119;-73
2021/05/22 18:06:26;;;;;;;1.95;0.70;;;11.90;99.90;;;;;;5110131;28;20086;-73
2021/05/22 18:08:53;;;;;;;0.73;0.70;;;12.10;99.90;;;;;;5108649;28;20357;-73
2021/05/22 18:11:20;;;;;;;0.88;0.80;;;12.10;99.90;;;;;;5110865;28;20028;-73
2021/05/22 18:13:46;;;;;;;1.60;0.70;;;12.00;99.90;;;;;;5108827;28;20024;-73
2021/05/22 18:16:14;;;;;;;1.95;0.80;;;11.80;99.90;;;;;;5110610;28;20035;-73
2021/05/22 18:18:40;;;;;;;1.48;0.70;;;11.80;99.90;;;;;;5109869;28;20031;-74
2021/05/22 18:21:08;;;;;;;1.58;0.60;;;11.90;99.90;;;;;;5109645;28;20028;-73
2021/05/22 18:23:36;;;;;;;1.30;0.60;;;11.80;99.90;;;;;;5109601;28;20020;-73
2021/05/22 18:26:03;;;;;;;1.42;0.50;;;11.90;99.90;;;;;;5109971;28;20056;-73
2021/05/22 18:28:29;;;;;;;1.55;0.90;;;11.80;99.90;;;;;;5110959;28;20495;-73
2021/05/22 18:30:56;;;;;;;3.13;1.00;;;11.70;99.90;;;;;;5110104;27;20034;-73
2021/05/22 18:33:21;;;;;;;1.33;0.52;;;11.80;99.90;;;;;;5109901;27;20078;-73
2021/05/22 18:35:47;;;;;;;0.90;0.55;;;11.50;99.90;;;;;;5110764;28;20067;-73
2021/05/22 18:38:17;;;;;;;0.70;0.70;;;11.40;99.90;;;;;;5106919;28;20046;-73
2021/05/22 18:40:44;;;;;;;1.42;0.52;;;11.10;99.90;;;;;;5109569;28;20110;-73
2021/05/22 18:43:11;;;;;;;1.52;0.60;;;10.70;99.90;;;;;;5110144;28;20399;-73
2021/05/22 18:45:38;;;;;;;0.47;0.47;;;10.60;99.90;;;;;;5092689;28;20052;-73
2021/05/22 18:48:04;;;;;;;1.65;0.60;;;10.30;99.90;;;;;;5093053;28;20055;-73
2021/05/22 18:50:30;;;;;;;3.45;0.85;;;10.20;99.90;;;;;;5092946;28;20032;-73
2021/05/22 18:52:56;;;;;;;0.68;0.63;;;10.10;99.90;;;;;;5092999;28;20030;-73
2021/05/22 18:55:21;;;;;;;3.50;0.82;;;10.20;99.90;;;;;;5092919;28;20488;-73
2021/05/22 18:57:48;;;;;;;2.47;0.70;;;10.20;99.90;;;;;;5091560;28;20024;-73
2021/05/22 19:00:16;;;;;;;2.05;0.60;;;10.30;99.90;;;;;;5092442;28;20035;-73
2021/05/22 19:02:43;;;;;;;3.05;0.70;;;10.20;99.90;;;;;;5092530;28;20028;-73
2021/05/22 19:05:09;;;;;;;0.75;0.55;;;10.30;99.90;;;;;;5092872;28;20502;-73
2021/05/22 19:07:36;;;;;;;1.95;0.60;;;10.30;99.90;;;;;;5092240;28;20032;-73
2021/05/22 19:10:06;;;;;;;3.25;0.57;;;10.40;99.90;;;;;;5092646;28;20024;-73
2021/05/22 19:12:31;;;;;;;1.95;0.70;;;10.30;99.90;;;;;;5092495;28;20189;-73
2021/05/22 19:14:58;;;;;;;0.80;0.50;;;10.30;99.90;;;;;;5110937;28;20126;-73
2021/05/22 19:17:24;;;;;;;1.95;0.50;;;10.50;99.90;;;;;;5112910;28;20068;-73
2021/05/22 19:19:50;;;;;;;0.80;0.70;;;10.80;99.90;;;;;;5111229;28;20432;-73
2021/05/22 19:22:17;;;;;;;1.77;0.70;;;11.00;99.90;;;;;;5110241;28;20047;-73
2021/05/22 19:24:43;;;;;;;2.28;0.98;;;11.10;99.90;;;;;;5110571;28;20031;-73
2021/05/22 19:27:09;;;;;;;4.90;0.93;;;11.10;99.90;;;;;;5110766;28;20016;-73
2021/05/22 19:29:35;;;;;;;2.40;0.77;;;11.20;99.90;;;;;;5110149;28;20076;-73
2021/05/22 19:32:01;;;;;;;2.63;0.60;;;11.20;99.90;;;;;;5110606;28;20040;-73
2021/05/22 19:34:27;;;;;;;2.33;0.70;;;11.30;99.90;;;;;;5110943;28;20047;-73
2021/05/22 19:36:54;;;;;;;2.40;0.70;;;11.30;99.90;;;;;;5110951;28;20024;-73
2021/05/22 19:39:20;;;;;;;2.50;0.85;;;11.30;99.90;;;;;;5108927;28;20395;-73
2021/05/22 19:41:46;;;;;;;1.15;0.60;;;11.30;99.90;;;;;;5111785;28;20026;-73
2021/05/22 19:44:12;;;;;;;1.05;0.63;;;11.30;99.90;;;;;;5111849;28;20024;-73
2021/05/22 19:46:38;;;;;;;2.53;1.33;;;11.40;99.90;;;;;;5099245;28;20081;-73
2021/05/22 19:49:04;;;;;;;1.00;0.50;;;11.30;99.90;;;;;;5091321;28;20369;-73
2021/05/22 19:51:30;;;;;;;1.42;0.52;;;11.40;99.90;;;;;;5091583;28;20024;-73
2021/05/22 19:53:57;;;;;;;0.85;0.38;;;11.40;99.90;;;;;;5102462;28;20600;-73
2021/05/22 19:56:23;;;;;;;1.10;0.40;;;11.40;99.90;;;;;;5111601;28;20399;-73
2021/05/22 19:58:49;;;;;;;2.45;0.60;;;11.00;99.80;;;;;;5111349;28;20039;-73
2021/05/22 20:01:16;;;;;;;1.85;0.57;;;11.10;99.90;;;;;;5111928;28;20502;-73
2021/05/22 20:03:42;;;;;;;2.38;0.50;;;11.00;98.70;;;;;;5111814;28;20039;-73
2021/05/22 20:06:08;;;;;;;1.90;0.50;;;11.10;99.90;;;;;;5111828;28;20065;-73
2021/05/22 20:08:36;;;;;;;1.25;0.70;;;11.20;99.90;;;;;;5111969;28;20036;-73
2021/05/22 20:11:04;;;;;;;3.50;1.10;;;11.20;99.90;;;;;;5111722;28;20019;-73
2021/05/22 20:13:29;;;;;;;2.53;1.05;;;11.30;99.90;;;;;;5111375;28;20031;-73
2021/05/22 20:15:55;;;;;;;1.88;1.10;;;11.30;99.90;;;;;;5111689;28;20438;-73
2021/05/22 20:18:21;;;;;;;1.00;0.75;;;11.30;99.90;;;;;;5111768;28;20038;-73
2021/05/22 20:20:47;;;;;;;5.22;1.13;;;11.20;99.90;;;;;;5111572;28;20027;-73
2021/05/22 20:23:13;;;;;;;1.15;0.68;;;11.20;99.90;;;;;;5111544;28;20036;-73
2021/05/22 20:25:39;;;;;;;3.92;0.50;;;11.30;99.90;;;;;;5111641;28;20032;-73
2021/05/22 20:28:06;;;;;;;6.13;0.80;;;11.30;99.90;;;;;;5111388;28;20076;-73
2021/05/22 20:30:32;;;;;;;1.23;0.60;;;11.30;99.90;;;;;;5111855;28;20011;-73
2021/05/22 20:32:58;;;;;;;0.68;0.60;;;11.10;99.90;;;;;;5111212;28;20067;-73
2021/05/22 20:35:24;;;;;;;1.77;0.90;;;11.20;99.90;;;;;;5111689;28;20047;-73
2021/05/22 20:37:51;;;;;;;3.38;1.20;;;11.10;99.90;;;;;;5111639;28;20479;-73